sensor_id;sensor_type;location;lat;lon;timestamp;temperature;humidity
23051;DHT22;11693;51.358;12.410;2022-08-19T00:01:21;23.50;99.90
23051;DHT22;11693;51.358;12.410;2022-08-19T00:03:47;23.40;99.90
23051;DHT22;11693;51.358;12.410;2022-08-19T00:06:13;23.40;99.90
23051;DHT22;11693;51.358;12.410;2022-08-19T00:08:39;23.50;99.90
23051;DHT22;11693;51.358;12.410;2022-08-19T00:11:05;23.50;99.90
23051;DHT22;11693;51.358;12.410;2022-08-19T00:13:31;23.40;99.90
23051;DHT22;11693;51.358;12.410;2022-08-19T00:15:57;23.40;99.90
23051;DHT22;11693;51.358;12.410;2022-08-19T00:18:24;23.30;99.90
23051;DHT22;11693;51.358;12.410;2022-08-19T00:20:50;23.30;99.90
23051;DHT22;11693;51.358;12.410;2022-08-19T00:23:15;23.50;99.90
23051;DHT22;11693;51.358;12.410;2022-08-19T00:25:41;23.50;99.90
23051;DHT22;11693;51.358;12.410;2022-08-19T00:28:07;23.50;99.90
23051;DHT22;11693;51.358;12.410;2022-08-19T00:30:32;23.60;99.90
23051;DHT22;11693;51.358;12.410;2022-08-19T00:32:58;23.60;99.90
23051;DHT22;11693;51.358;12.410;2022-08-19T00:35:24;23.70;99.90
23051;DHT22;11693;51.358;12.410;2022-08-19T00:37:50;23.60;99.90
23051;DHT22;11693;51.358;12.410;2022-08-19T00:40:16;23.60;99.90
23051;DHT22;11693;51.358;12.410;2022-08-19T00:42:43;23.50;99.90
23051;DHT22;11693;51.358;12.410;2022-08-19T00:45:21;23.20;99.90
23051;DHT22;11693;51.358;12.410;2022-08-19T00:47:47;23.10;99.90
23051;DHT22;11693;51.358;12.410;2022-08-19T00:50:15;23.20;99.90
23051;DHT22;11693;51.358;12.410;2022-08-19T00:52:45;23.20;99.90
23051;DHT22;11693;51.358;12.410;2022-08-19T00:55:19;23.30;99.90
23051;DHT22;11693;51.358;12.410;2022-08-19T00:58:00;23.30;99.90
23051;DHT22;11693;51.358;12.410;2022-08-19T01:00:27;23.30;99.90
23051;DHT22;11693;51.358;12.410;2022-08-19T01:02:53;23.30;99.90
23051;DHT22;11693;51.358;12.410;2022-08-19T01:05:24;23.20;99.90
23051;DHT22;11693;51.358;12.410;2022-08-19T01:07:53;23.20;99.90
23051;DHT22;11693;51.358;12.410;2022-08-19T01:10:23;23.20;99.90
23051;DHT22;11693;51.358;12.410;2022-08-19T01:12:51;23.20;99.90
23051;DHT22;11693;51.358;12.410;2022-08-19T01:15:20;23.20;99.90
23051;DHT22;11693;51.358;12.410;2022-08-19T01:17:46;23.20;99.90
23051;DHT22;11693;51.358;12.410;2022-08-19T01:20:16;23.10;99.90
23051;DHT22;11693;51.358;12.410;2022-08-19T01:22:54;23.20;99.90
23051;DHT22;11693;51.358;12.410;2022-08-19T01:25:26;23.20;99.90
23051;DHT22;11693;51.358;12.410;2022-08-19T01:27:53;23.20;99.90
23051;DHT22;11693;51.358;12.410;2022-08-19T01:30:29;23.20;99.90
23051;DHT22;11693;51.358;12.410;2022-08-19T01:32:56;23.20;99.90
23051;DHT22;11693;51.358;12.410;2022-08-19T01:35:24;23.20;99.90
23051;DHT22;11693;51.358;12.410;2022-08-19T01:37:58;23.20;99.90
23051;DHT22;11693;51.358;12.410;2022-08-19T01:40:26;23.20;99.90
23051;DHT22;11693;51.358;12.410;2022-08-19T01:42:53;23.10;99.90
23051;DHT22;11693;51.358;12.410;2022-08-19T01:45:21;23.20;99.90
23051;DHT22;11693;51.358;12.410;2022-08-19T01:47:47;23.10;99.90
23051;DHT22;11693;51.358;12.410;2022-08-19T01:50:13;23.10;99.90
23051;DHT22;11693;51.358;12.410;2022-08-19T01:52:40;23.10;99.90
23051;DHT22;11693;51.358;12.410;2022-08-19T01:55:10;23.10;99.90
23051;DHT22;11693;51.358;12.410;2022-08-19T01:57:37;23.10;99.90
23051;DHT22;11693;51.358;12.410;2022-08-19T02:00:09;23.10;99.90
23051;DHT22;11693;51.358;12.410;2022-08-19T02:02:35;23.20;99.90
23051;DHT22;11693;51.358;12.410;2022-08-19T02:05:00;23.10;99.90
23051;DHT22;11693;51.358;12.410;2022-08-19T02:07:26;23.00;99.90
23051;DHT22;11693;51.358;12.410;2022-08-19T02:09:53;23.00;99.90
23051;DHT22;11693;51.358;12.410;2022-08-19T02:12:20;23.00;99.90
23051;DHT22;11693;51.358;12.410;2022-08-19T02:14:46;23.00;99.90
23051;DHT22;11693;51.358;12.410;2022-08-19T02:17:12;22.90;99.90
23051;DHT22;11693;51.358;12.410;2022-08-19T02:19:37;23.00;99.90
23051;DHT22;11693;51.358;12.410;2022-08-19T02:22:03;23.00;99.90
23051;DHT22;11693;51.358;12.410;2022-08-19T02:24:29;23.00;99.90
23051;DHT22;11693;51.358;12.410;2022-08-19T02:26:54;23.10;99.90
23051;DHT22;11693;51.358;12.410;2022-08-19T02:29:20;23.30;99.90
23051;DHT22;11693;51.358;12.410;2022-08-19T02:31:46;23.30;99.90
23051;DHT22;11693;51.358;12.410;2022-08-19T02:34:11;23.40;99.90
23051;DHT22;11693;51.358;12.410;2022-08-19T02:36:37;23.40;99.90
23051;DHT22;11693;51.358;12.410;2022-08-19T02:39:04;23.40;99.90
23051;DHT22;11693;51.358;12.410;2022-08-19T02:41:32;23.40;99.90
23051;DHT22;11693;51.358;12.410;2022-08-19T02:43:59;23.30;99.90
23051;DHT22;11693;51.358;12.410;2022-08-19T02:46:31;23.40;99.90
23051;DHT22;11693;51.358;12.410;2022-08-19T02:49:03;23.50;99.90
23051;DHT22;11693;51.358;12.410;2022-08-19T02:51:35;23.50;99.90
23051;DHT22;11693;51.358;12.410;2022-08-19T02:54:01;23.50;99.90
23051;DHT22;11693;51.358;12.410;2022-08-19T02:56:27;23.50;99.90
23051;DHT22;11693;51.358;12.410;2022-08-19T02:58:56;23.50;99.90
23051;DHT22;11693;51.358;12.410;2022-08-19T03:01:25;23.40;99.90
23051;DHT22;11693;51.358;12.410;2022-08-19T03:03:52;23.40;99.90
23051;DHT22;11693;51.358;12.410;2022-08-19T03:06:18;23.50;99.90
23051;DHT22;11693;51.358;12.410;2022-08-19T03:08:45;23.40;99.90
23051;DHT22;11693;51.358;12.410;2022-08-19T03:11:17;23.40;99.90
23051;DHT22;11693;51.358;12.410;2022-08-19T03:13:43;23.50;99.90
23051;DHT22;11693;51.358;12.410;2022-08-19T03:16:10;23.60;99.90
23051;DHT22;11693;51.358;12.410;2022-08-19T03:18:36;23.50;99.90
23051;DHT22;11693;51.358;12.410;2022-08-19T03:21:01;23.50;99.90
23051;DHT22;11693;51.358;12.410;2022-08-19T03:23:27;23.50;99.90
23051;DHT22;11693;51.358;12.410;2022-08-19T03:25:53;23.70;99.90
23051;DHT22;11693;51.358;12.410;2022-08-19T03:28:20;23.70;99.90
23051;DHT22;11693;51.358;12.410;2022-08-19T03:31:00;23.70;99.90
23051;DHT22;11693;51.358;12.410;2022-08-19T03:33:27;23.60;99.90
23051;DHT22;11693;51.358;12.410;2022-08-19T03:36:13;23.60;99.90
23051;DHT22;11693;51.358;12.410;2022-08-19T03:38:47;23.60;99.90
23051;DHT22;11693;51.358;12.410;2022-08-19T03:41:36;23.70;99.90
23051;DHT22;11693;51.358;12.410;2022-08-19T03:44:03;23.80;99.90
23051;DHT22;11693;51.358;12.410;2022-08-19T03:46:31;23.80;99.90
23051;DHT22;11693;51.358;12.410;2022-08-19T03:48:59;23.80;99.90
23051;DHT22;11693;51.358;12.410;2022-08-19T03:51:36;23.90;99.90
23051;DHT22;11693;51.358;12.410;2022-08-19T03:54:05;23.90;99.90
23051;DHT22;11693;51.358;12.410;2022-08-19T03:56:33;23.90;99.90
23051;DHT22;11693;51.358;12.410;2022-08-19T03:58:59;23.80;99.90
23051;DHT22;11693;51.358;12.410;2022-08-19T04:01:26;23.80;99.90
23051;DHT22;11693;51.358;12.410;2022-08-19T04:03:53;23.70;99.90
23051;DHT22;11693;51.358;12.410;2022-08-19T04:06:28;23.80;99.90
23051;DHT22;11693;51.358;12.410;2022-08-19T04:08:54;23.70;99.90
23051;DHT22;11693;51.358;12.410;2022-08-19T04:11:24;23.80;99.90
23051;DHT22;11693;51.358;12.410;2022-08-19T04:13:50;23.80;99.90
23051;DHT22;11693;51.358;12.410;2022-08-19T04:16:17;23.80;99.90
23051;DHT22;11693;51.358;12.410;2022-08-19T04:18:43;23.80;99.90
23051;DHT22;11693;51.358;12.410;2022-08-19T04:21:16;23.80;99.90
23051;DHT22;11693;51.358;12.410;2022-08-19T04:23:42;23.80;99.90
23051;DHT22;11693;51.358;12.410;2022-08-19T04:26:13;23.80;99.90
23051;DHT22;11693;51.358;12.410;2022-08-19T04:28:39;23.80;99.90
23051;DHT22;11693;51.358;12.410;2022-08-19T04:31:05;23.80;99.90
23051;DHT22;11693;51.358;12.410;2022-08-19T04:33:30;23.90;99.90
23051;DHT22;11693;51.358;12.410;2022-08-19T04:35:56;23.90;99.90
23051;DHT22;11693;51.358;12.410;2022-08-19T04:38:23;23.90;99.90
23051;DHT22;11693;51.358;12.410;2022-08-19T04:40:51;23.80;99.90
23051;DHT22;11693;51.358;12.410;2022-08-19T04:43:37;23.80;99.90
23051;DHT22;11693;51.358;12.410;2022-08-19T04:46:11;23.70;99.90
23051;DHT22;11693;51.358;12.410;2022-08-19T04:48:38;23.70;99.90
23051;DHT22;11693;51.358;12.410;2022-08-19T04:51:07;23.80;99.90
23051;DHT22;11693;51.358;12.410;2022-08-19T04:53:35;23.80;99.90
23051;DHT22;11693;51.358;12.410;2022-08-19T04:56:07;23.80;99.90
23051;DHT22;11693;51.358;12.410;2022-08-19T04:58:34;23.90;99.90
23051;DHT22;11693;51.358;12.410;2022-08-19T05:01:00;23.80;99.90
23051;DHT22;11693;51.358;12.410;2022-08-19T05:03:26;23.90;99.90
23051;DHT22;11693;51.358;12.410;2022-08-19T05:05:51;23.90;99.90
23051;DHT22;11693;51.358;12.410;2022-08-19T05:08:20;24.00;99.90
23051;DHT22;11693;51.358;12.410;2022-08-19T05:10:50;24.10;99.90
23051;DHT22;11693;51.358;12.410;2022-08-19T05:13:18;24.10;99.90
23051;DHT22;11693;51.358;12.410;2022-08-19T05:15:55;24.10;99.90
23051;DHT22;11693;51.358;12.410;2022-08-19T05:18:21;23.90;99.90
23051;DHT22;11693;51.358;12.410;2022-08-19T05:21:11;24.00;99.90
23051;DHT22;11693;51.358;12.410;2022-08-19T05:23:55;23.90;99.90
23051;DHT22;11693;51.358;12.410;2022-08-19T05:26:21;23.90;99.90
23051;DHT22;11693;51.358;12.410;2022-08-19T05:28:47;23.90;99.90
23051;DHT22;11693;51.358;12.410;2022-08-19T05:31:12;23.90;99.90
23051;DHT22;11693;51.358;12.410;2022-08-19T05:33:38;23.90;99.90
23051;DHT22;11693;51.358;12.410;2022-08-19T05:36:05;24.10;99.90
23051;DHT22;11693;51.358;12.410;2022-08-19T05:38:33;24.20;99.90
23051;DHT22;11693;51.358;12.410;2022-08-19T05:40:59;24.20;99.90
23051;DHT22;11693;51.358;12.410;2022-08-19T05:43:24;24.20;99.90
23051;DHT22;11693;51.358;12.410;2022-08-19T05:45:50;24.20;99.90
23051;DHT22;11693;51.358;12.410;2022-08-19T05:48:16;24.20;99.90
23051;DHT22;11693;51.358;12.410;2022-08-19T05:50:46;24.30;99.90
23051;DHT22;11693;51.358;12.410;2022-08-19T05:53:12;24.20;99.90
23051;DHT22;11693;51.358;12.410;2022-08-19T05:55:38;24.30;99.90
23051;DHT22;11693;51.358;12.410;2022-08-19T05:58:04;24.40;99.90
23051;DHT22;11693;51.358;12.410;2022-08-19T06:00:33;24.50;99.90
23051;DHT22;11693;51.358;12.410;2022-08-19T06:02:59;24.50;99.90
23051;DHT22;11693;51.358;12.410;2022-08-19T06:05:29;24.40;99.90
23051;DHT22;11693;51.358;12.410;2022-08-19T06:07:55;24.30;99.90
23051;DHT22;11693;51.358;12.410;2022-08-19T06:10:21;24.40;99.90
23051;DHT22;11693;51.358;12.410;2022-08-19T06:12:48;24.40;99.90
23051;DHT22;11693;51.358;12.410;2022-08-19T06:15:14;24.40;99.90
23051;DHT22;11693;51.358;12.410;2022-08-19T06:17:41;24.30;99.90
23051;DHT22;11693;51.358;12.410;2022-08-19T06:20:10;24.40;99.90
23051;DHT22;11693;51.358;12.410;2022-08-19T06:22:46;24.30;99.90
23051;DHT22;11693;51.358;12.410;2022-08-19T06:25:14;24.30;99.90
23051;DHT22;11693;51.358;12.410;2022-08-19T06:27:41;24.30;99.90
23051;DHT22;11693;51.358;12.410;2022-08-19T06:30:07;24.40;99.90
23051;DHT22;11693;51.358;12.410;2022-08-19T06:32:33;24.50;99.90
23051;DHT22;11693;51.358;12.410;2022-08-19T06:34:59;24.60;99.90
23051;DHT22;11693;51.358;12.410;2022-08-19T06:37:24;24.50;99.90
23051;DHT22;11693;51.358;12.410;2022-08-19T06:39:50;24.50;99.90
23051;DHT22;11693;51.358;12.410;2022-08-19T06:42:16;24.40;99.90
23051;DHT22;11693;51.358;12.410;2022-08-19T06:44:45;24.30;99.90
23051;DHT22;11693;51.358;12.410;2022-08-19T06:47:15;24.30;99.90
23051;DHT22;11693;51.358;12.410;2022-08-19T06:49:41;24.20;99.90
23051;DHT22;11693;51.358;12.410;2022-08-19T06:52:07;24.10;99.90
23051;DHT22;11693;51.358;12.410;2022-08-19T06:54:33;24.20;99.90
23051;DHT22;11693;51.358;12.410;2022-08-19T06:57:00;24.10;99.90
23051;DHT22;11693;51.358;12.410;2022-08-19T06:59:30;24.10;99.90
23051;DHT22;11693;51.358;12.410;2022-08-19T07:01:59;24.10;99.90
23051;DHT22;11693;51.358;12.410;2022-08-19T07:04:28;24.10;99.90
23051;DHT22;11693;51.358;12.410;2022-08-19T07:07:04;24.20;99.90
23051;DHT22;11693;51.358;12.410;2022-08-19T07:09:33;24.10;99.90
23051;DHT22;11693;51.358;12.410;2022-08-19T07:11:59;23.90;99.90
23051;DHT22;11693;51.358;12.410;2022-08-19T07:14:27;23.90;99.90
23051;DHT22;11693;51.358;12.410;2022-08-19T07:16:54;23.90;99.90
23051;DHT22;11693;51.358;12.410;2022-08-19T07:19:21;24.00;99.90
23051;DHT22;11693;51.358;12.410;2022-08-19T07:21:49;23.90;99.90
23051;DHT22;11693;51.358;12.410;2022-08-19T07:24:19;24.10;99.90
23051;DHT22;11693;51.358;12.410;2022-08-19T07:26:45;24.00;99.90
23051;DHT22;11693;51.358;12.410;2022-08-19T07:29:11;24.00;99.90
23051;DHT22;11693;51.358;12.410;2022-08-19T07:31:38;24.00;99.90
23051;DHT22;11693;51.358;12.410;2022-08-19T07:34:05;24.00;99.90
23051;DHT22;11693;51.358;12.410;2022-08-19T07:36:39;24.10;99.90
23051;DHT22;11693;51.358;12.410;2022-08-19T07:39:09;24.00;99.90
23051;DHT22;11693;51.358;12.410;2022-08-19T07:41:35;24.00;99.90
23051;DHT22;11693;51.358;12.410;2022-08-19T07:44:03;24.10;99.90
23051;DHT22;11693;51.358;12.410;2022-08-19T07:46:33;24.10;99.90
23051;DHT22;11693;51.358;12.410;2022-08-19T07:48:59;24.10;99.90
23051;DHT22;11693;51.358;12.410;2022-08-19T07:51:26;24.00;99.90
23051;DHT22;11693;51.358;12.410;2022-08-19T07:53:53;24.10;99.90
23051;DHT22;11693;51.358;12.410;2022-08-19T07:56:20;24.10;99.90
23051;DHT22;11693;51.358;12.410;2022-08-19T07:58:48;24.10;99.90
23051;DHT22;11693;51.358;12.410;2022-08-19T08:01:20;24.20;99.90
23051;DHT22;11693;51.358;12.410;2022-08-19T08:03:47;24.30;99.90
23051;DHT22;11693;51.358;12.410;2022-08-19T08:06:32;24.30;99.90
23051;DHT22;11693;51.358;12.410;2022-08-19T08:09:27;24.30;99.90
23051;DHT22;11693;51.358;12.410;2022-08-19T08:11:59;24.30;99.90
23051;DHT22;11693;51.358;12.410;2022-08-19T08:14:30;24.30;99.90
23051;DHT22;11693;51.358;12.410;2022-08-19T08:16:56;24.30;99.90
23051;DHT22;11693;51.358;12.410;2022-08-19T08:19:24;24.30;99.90
23051;DHT22;11693;51.358;12.410;2022-08-19T08:21:51;24.50;99.90
23051;DHT22;11693;51.358;12.410;2022-08-19T08:24:18;24.60;99.90
23051;DHT22;11693;51.358;12.410;2022-08-19T08:26:44;24.60;99.90
23051;DHT22;11693;51.358;12.410;2022-08-19T08:29:11;24.70;99.90
23051;DHT22;11693;51.358;12.410;2022-08-19T08:31:39;24.80;99.90
23051;DHT22;11693;51.358;12.410;2022-08-19T08:34:05;24.80;99.90
23051;DHT22;11693;51.358;12.410;2022-08-19T08:36:30;24.80;99.90
23051;DHT22;11693;51.358;12.410;2022-08-19T08:38:59;24.80;99.90
23051;DHT22;11693;51.358;12.410;2022-08-19T08:41:54;24.80;99.90
23051;DHT22;11693;51.358;12.410;2022-08-19T08:44:34;24.90;99.90
23051;DHT22;11693;51.358;12.410;2022-08-19T08:47:09;24.80;99.90
23051;DHT22;11693;51.358;12.410;2022-08-19T08:49:43;24.90;99.90
23051;DHT22;11693;51.358;12.410;2022-08-19T08:52:26;24.80;99.90
23051;DHT22;11693;51.358;12.410;2022-08-19T08:54:55;24.80;99.90
23051;DHT22;11693;51.358;12.410;2022-08-19T08:57:44;24.70;99.90
23051;DHT22;11693;51.358;12.410;2022-08-19T09:00:25;24.70;99.90
23051;DHT22;11693;51.358;12.410;2022-08-19T09:02:53;24.90;99.90
23051;DHT22;11693;51.358;12.410;2022-08-19T09:05:20;24.90;99.90
23051;DHT22;11693;51.358;12.410;2022-08-19T09:10:17;25.00;99.90
23051;DHT22;11693;51.358;12.410;2022-08-19T09:15:47;25.10;99.90
23051;DHT22;11693;51.358;12.410;2022-08-19T09:18:15;25.20;99.90
23051;DHT22;11693;51.358;12.410;2022-08-19T09:20:42;25.20;99.90
23051;DHT22;11693;51.358;12.410;2022-08-19T09:23:07;25.40;99.90
23051;DHT22;11693;51.358;12.410;2022-08-19T09:25:33;25.70;99.90
23051;DHT22;11693;51.358;12.410;2022-08-19T09:28:00;25.80;99.90
23051;DHT22;11693;51.358;12.410;2022-08-19T09:30:30;25.80;99.90
23051;DHT22;11693;51.358;12.410;2022-08-19T09:32:56;25.70;99.90
23051;DHT22;11693;51.358;12.410;2022-08-19T09:35:24;25.70;99.90
23051;DHT22;11693;51.358;12.410;2022-08-19T09:37:51;25.70;99.90
23051;DHT22;11693;51.358;12.410;2022-08-19T09:40:17;25.70;99.90
23051;DHT22;11693;51.358;12.410;2022-08-19T09:42:44;25.60;99.90
23051;DHT22;11693;51.358;12.410;2022-08-19T09:45:13;25.50;99.90
23051;DHT22;11693;51.358;12.410;2022-08-19T09:47:39;25.40;99.90
23051;DHT22;11693;51.358;12.410;2022-08-19T09:50:06;25.40;99.90
23051;DHT22;11693;51.358;12.410;2022-08-19T09:52:33;25.40;99.90
23051;DHT22;11693;51.358;12.410;2022-08-19T09:54:58;25.50;99.90
23051;DHT22;11693;51.358;12.410;2022-08-19T09:57:24;25.70;99.90
23051;DHT22;11693;51.358;12.410;2022-08-19T09:59:50;25.80;99.90
23051;DHT22;11693;51.358;12.410;2022-08-19T10:02:15;25.80;99.90
23051;DHT22;11693;51.358;12.410;2022-08-19T10:04:41;25.70;99.90
23051;DHT22;11693;51.358;12.410;2022-08-19T10:07:25;25.50;99.90
23051;DHT22;11693;51.358;12.410;2022-08-19T10:09:50;25.60;99.90
23051;DHT22;11693;51.358;12.410;2022-08-19T10:12:16;25.70;99.90
23051;DHT22;11693;51.358;12.410;2022-08-19T10:14:42;26.00;99.90
23051;DHT22;11693;51.358;12.410;2022-08-19T10:17:07;26.10;99.90
23051;DHT22;11693;51.358;12.410;2022-08-19T10:19:33;26.30;99.90
23051;DHT22;11693;51.358;12.410;2022-08-19T10:22:05;26.40;99.90
23051;DHT22;11693;51.358;12.410;2022-08-19T10:24:32;26.50;99.90
23051;DHT22;11693;51.358;12.410;2022-08-19T10:27:00;26.70;99.90
23051;DHT22;11693;51.358;12.410;2022-08-19T10:29:29;26.70;99.90
23051;DHT22;11693;51.358;12.410;2022-08-19T10:31:54;26.80;99.90
23051;DHT22;11693;51.358;12.410;2022-08-19T10:34:21;26.80;99.90
23051;DHT22;11693;51.358;12.410;2022-08-19T10:36:46;26.90;99.90
23051;DHT22;11693;51.358;12.410;2022-08-19T10:39:13;27.00;99.90
23051;DHT22;11693;51.358;12.410;2022-08-19T10:41:39;27.20;99.90
23051;DHT22;11693;51.358;12.410;2022-08-19T10:44:08;27.20;99.90
23051;DHT22;11693;51.358;12.410;2022-08-19T10:46:38;27.50;99.90
23051;DHT22;11693;51.358;12.410;2022-08-19T10:49:07;27.60;99.90
23051;DHT22;11693;51.358;12.410;2022-08-19T10:51:33;27.40;99.90
23051;DHT22;11693;51.358;12.410;2022-08-19T10:54:18;27.20;99.90
23051;DHT22;11693;51.358;12.410;2022-08-19T10:56:44;27.10;99.90
23051;DHT22;11693;51.358;12.410;2022-08-19T10:59:27;27.20;99.90
23051;DHT22;11693;51.358;12.410;2022-08-19T11:01:59;27.10;99.90
23051;DHT22;11693;51.358;12.410;2022-08-19T11:04:25;26.90;99.90
23051;DHT22;11693;51.358;12.410;2022-08-19T11:06:50;27.00;99.90
23051;DHT22;11693;51.358;12.410;2022-08-19T11:09:20;27.10;99.90
23051;DHT22;11693;51.358;12.410;2022-08-19T11:11:46;27.10;99.90
23051;DHT22;11693;51.358;12.410;2022-08-19T11:14:15;26.90;99.90
23051;DHT22;11693;51.358;12.410;2022-08-19T11:16:41;26.80;99.90
23051;DHT22;11693;51.358;12.410;2022-08-19T11:19:08;26.90;99.90
23051;DHT22;11693;51.358;12.410;2022-08-19T11:21:40;26.90;99.90
23051;DHT22;11693;51.358;12.410;2022-08-19T11:24:09;26.80;99.90
23051;DHT22;11693;51.358;12.410;2022-08-19T11:26:35;26.60;99.90
23051;DHT22;11693;51.358;12.410;2022-08-19T11:29:02;26.40;99.90
23051;DHT22;11693;51.358;12.410;2022-08-19T11:31:30;26.40;99.90
23051;DHT22;11693;51.358;12.410;2022-08-19T11:33:57;26.50;99.90
23051;DHT22;11693;51.358;12.410;2022-08-19T11:36:25;26.50;99.90
23051;DHT22;11693;51.358;12.410;2022-08-19T11:38:52;26.50;99.90
23051;DHT22;11693;51.358;12.410;2022-08-19T11:41:19;26.60;99.90
23051;DHT22;11693;51.358;12.410;2022-08-19T11:43:45;26.80;99.90
23051;DHT22;11693;51.358;12.410;2022-08-19T11:46:14;26.90;99.90
23051;DHT22;11693;51.358;12.410;2022-08-19T11:48:40;27.00;99.90
23051;DHT22;11693;51.358;12.410;2022-08-19T11:51:09;27.20;99.90
23051;DHT22;11693;51.358;12.410;2022-08-19T11:53:37;27.20;99.90
23051;DHT22;11693;51.358;12.410;2022-08-19T11:56:03;27.50;99.90
23051;DHT22;11693;51.358;12.410;2022-08-19T11:58:30;27.60;99.90
23051;DHT22;11693;51.358;12.410;2022-08-19T12:00:56;27.80;99.90
23051;DHT22;11693;51.358;12.410;2022-08-19T12:03:22;27.80;99.90
23051;DHT22;11693;51.358;12.410;2022-08-19T12:05:48;27.90;99.90
23051;DHT22;11693;51.358;12.410;2022-08-19T12:08:15;28.10;99.90
23051;DHT22;11693;51.358;12.410;2022-08-19T12:10:42;28.30;99.90
23051;DHT22;11693;51.358;12.410;2022-08-19T12:13:09;28.50;99.90
23051;DHT22;11693;51.358;12.410;2022-08-19T12:15:37;28.60;99.90
23051;DHT22;11693;51.358;12.410;2022-08-19T12:18:04;28.70;99.90
23051;DHT22;11693;51.358;12.410;2022-08-19T12:20:30;28.80;99.90
23051;DHT22;11693;51.358;12.410;2022-08-19T12:22:56;28.80;99.90
23051;DHT22;11693;51.358;12.410;2022-08-19T12:25:22;29.00;99.90
23051;DHT22;11693;51.358;12.410;2022-08-19T12:27:47;29.40;99.90
23051;DHT22;11693;51.358;12.410;2022-08-19T12:30:13;29.70;99.90
23051;DHT22;11693;51.358;12.410;2022-08-19T12:32:39;29.80;99.90
23051;DHT22;11693;51.358;12.410;2022-08-19T12:35:06;29.70;99.90
23051;DHT22;11693;51.358;12.410;2022-08-19T12:37:32;29.70;99.90
23051;DHT22;11693;51.358;12.410;2022-08-19T12:39:58;29.70;99.90
23051;DHT22;11693;51.358;12.410;2022-08-19T12:42:23;30.10;99.90
23051;DHT22;11693;51.358;12.410;2022-08-19T12:44:49;30.50;99.90
23051;DHT22;11693;51.358;12.410;2022-08-19T12:47:15;31.20;99.90
23051;DHT22;11693;51.358;12.410;2022-08-19T12:49:42;31.80;99.90
23051;DHT22;11693;51.358;12.410;2022-08-19T12:52:09;32.30;99.90
23051;DHT22;11693;51.358;12.410;2022-08-19T12:54:37;32.90;99.90
23051;DHT22;11693;51.358;12.410;2022-08-19T12:57:07;33.50;99.40
23051;DHT22;11693;51.358;12.410;2022-08-19T12:59:34;33.60;98.10
23051;DHT22;11693;51.358;12.410;2022-08-19T13:02:02;34.00;98.10
23051;DHT22;11693;51.358;12.410;2022-08-19T13:04:29;34.80;96.30
23051;DHT22;11693;51.358;12.410;2022-08-19T13:06:54;35.40;94.00
23051;DHT22;11693;51.358;12.410;2022-08-19T13:09:20;35.50;93.30
23051;DHT22;11693;51.358;12.410;2022-08-19T13:11:45;35.40;93.70
23051;DHT22;11693;51.358;12.410;2022-08-19T13:14:11;35.00;92.90
23051;DHT22;11693;51.358;12.410;2022-08-19T13:16:37;34.40;93.40
23051;DHT22;11693;51.358;12.410;2022-08-19T13:19:04;33.70;93.70
23051;DHT22;11693;51.358;12.410;2022-08-19T13:21:30;33.20;95.30
23051;DHT22;11693;51.358;12.410;2022-08-19T13:23:56;32.70;95.70
23051;DHT22;11693;51.358;12.410;2022-08-19T13:26:22;32.30;96.10
23051;DHT22;11693;51.358;12.410;2022-08-19T13:28:48;31.90;96.30
23051;DHT22;11693;51.358;12.410;2022-08-19T13:31:35;31.60;97.30
23051;DHT22;11693;51.358;12.410;2022-08-19T13:34:30;31.00;98.40
23051;DHT22;11693;51.358;12.410;2022-08-19T13:36:58;30.60;99.30
23051;DHT22;11693;51.358;12.410;2022-08-19T13:39:24;30.20;99.50
23051;DHT22;11693;51.358;12.410;2022-08-19T13:41:49;29.80;99.90
23051;DHT22;11693;51.358;12.410;2022-08-19T13:44:16;29.60;99.90
23051;DHT22;11693;51.358;12.410;2022-08-19T13:46:44;29.40;99.90
23051;DHT22;11693;51.358;12.410;2022-08-19T13:49:12;29.30;99.90
23051;DHT22;11693;51.358;12.410;2022-08-19T13:51:38;29.00;99.90
23051;DHT22;11693;51.358;12.410;2022-08-19T13:54:07;28.70;99.90
23051;DHT22;11693;51.358;12.410;2022-08-19T13:56:34;28.50;99.90
23051;DHT22;11693;51.358;12.410;2022-08-19T13:59:00;28.40;99.90
23051;DHT22;11693;51.358;12.410;2022-08-19T14:01:25;28.30;99.90
23051;DHT22;11693;51.358;12.410;2022-08-19T14:03:51;28.30;99.90
23051;DHT22;11693;51.358;12.410;2022-08-19T14:06:18;28.30;99.90
23051;DHT22;11693;51.358;12.410;2022-08-19T14:08:44;28.20;99.90
23051;DHT22;11693;51.358;12.410;2022-08-19T14:11:10;28.10;99.90
23051;DHT22;11693;51.358;12.410;2022-08-19T14:13:36;28.00;99.90
23051;DHT22;11693;51.358;12.410;2022-08-19T14:16:07;28.00;99.90
23051;DHT22;11693;51.358;12.410;2022-08-19T14:18:32;28.00;99.90
23051;DHT22;11693;51.358;12.410;2022-08-19T14:20:58;28.10;99.90
23051;DHT22;11693;51.358;12.410;2022-08-19T14:23:24;28.10;99.90
23051;DHT22;11693;51.358;12.410;2022-08-19T14:25:49;28.00;99.90
23051;DHT22;11693;51.358;12.410;2022-08-19T14:28:15;28.10;99.90
23051;DHT22;11693;51.358;12.410;2022-08-19T14:30:42;28.10;99.90
23051;DHT22;11693;51.358;12.410;2022-08-19T14:33:10;28.10;99.90
23051;DHT22;11693;51.358;12.410;2022-08-19T14:35:36;28.00;99.90
23051;DHT22;11693;51.358;12.410;2022-08-19T14:38:04;28.00;99.90
23051;DHT22;11693;51.358;12.410;2022-08-19T14:40:30;28.00;99.90
23051;DHT22;11693;51.358;12.410;2022-08-19T14:42:59;27.90;99.90
23051;DHT22;11693;51.358;12.410;2022-08-19T14:45:30;27.90;99.90
23051;DHT22;11693;51.358;12.410;2022-08-19T14:47:56;28.00;99.90
23051;DHT22;11693;51.358;12.410;2022-08-19T14:50:22;28.10;99.90
23051;DHT22;11693;51.358;12.410;2022-08-19T14:52:48;28.30;99.90
23051;DHT22;11693;51.358;12.410;2022-08-19T14:55:17;28.40;99.90
23051;DHT22;11693;51.358;12.410;2022-08-19T14:57:44;28.40;99.90
23051;DHT22;11693;51.358;12.410;2022-08-19T15:00:10;28.40;99.90
23051;DHT22;11693;51.358;12.410;2022-08-19T15:02:40;28.50;99.90
23051;DHT22;11693;51.358;12.410;2022-08-19T15:05:06;28.50;99.90
23051;DHT22;11693;51.358;12.410;2022-08-19T15:07:32;28.30;99.90
23051;DHT22;11693;51.358;12.410;2022-08-19T15:09:57;28.30;99.90
23051;DHT22;11693;51.358;12.410;2022-08-19T15:12:23;28.20;99.90
23051;DHT22;11693;51.358;12.410;2022-08-19T15:14:49;28.10;99.90
23051;DHT22;11693;51.358;12.410;2022-08-19T15:17:18;28.10;99.90
23051;DHT22;11693;51.358;12.410;2022-08-19T15:19:44;28.10;99.90
23051;DHT22;11693;51.358;12.410;2022-08-19T15:22:10;28.00;99.90
23051;DHT22;11693;51.358;12.410;2022-08-19T15:24:36;27.90;99.90
23051;DHT22;11693;51.358;12.410;2022-08-19T15:27:04;27.80;99.90